Flight Track Log - Related Links

Times and Time Zones

All times are in EDT time to prevent confusion due to time zone crossing. See the UAL1006 flight status page for this flight to view local times or setup timezone preferences in your user account.

Time Position Orientation Groundspeed Altitude Reporting Facility
EDT Latitude Longitude Course Direction KTS MPH feet Rate Location/Type
Sun 01:27:00 AM 5.7443 -74.8145 328° Northwest  Level FlightAware Approximate
Sun 01:28:00 AM 5.8485 -74.8814 327° Northwest  Level FlightAware Approximate
Sun 01:29:00 AM 5.9527 -74.9483 327° Northwest  Level FlightAware Approximate
Sun 01:30:00 AM 6.0570 -75.0152 327° Northwest  Level FlightAware Approximate
Sun 01:31:00 AM 6.1612 -75.0822 327° Northwest  Level FlightAware Approximate
Sun 01:32:00 AM 6.2654 -75.1492 327° Northwest  Level FlightAware Approximate
Sun 01:33:00 AM 6.3617 -75.2123 327° Northwest  Level FlightAware Approximate
Sun 01:34:00 AM 6.4653 -75.2803 327° Northwest  Level FlightAware Approximate
Sun 01:35:00 AM 6.5689 -75.3482 327° Northwest  Level FlightAware Approximate
Sun 01:36:00 AM 6.6725 -75.4162 327° Northwest  Level FlightAware Approximate
Sun 01:37:00 AM 6.7761 -75.4843 327° Northwest  Level FlightAware Approximate
Sun 01:38:00 AM 6.8796 -75.5523 327° Northwest  Level FlightAware Approximate
Sun 01:39:00 AM 6.9832 -75.6204 327° Northwest  Level FlightAware Approximate
Sun 01:40:00 AM 7.0867 -75.6885 327° Northwest  Level FlightAware Approximate
Sun 01:41:00 AM 7.1902 -75.7567 327° Northwest  Level FlightAware Approximate
Sun 01:42:00 AM 7.2937 -75.8249 327° Northwest  Level FlightAware Approximate
Sun 01:43:00 AM 7.3973 -75.8931 327° Northwest  Level FlightAware Approximate
Sun 01:44:00 AM 7.5008 -75.9613 327° Northwest  Level FlightAware Approximate
Sun 01:45:00 AM 7.6042 -76.0296 327° Northwest  Level FlightAware Approximate
Sun 01:46:00 AM 7.7077 -76.0979 327° Northwest  Level FlightAware Approximate
Sun 01:47:00 AM 7.8112 -76.1662 327° Northwest  Level FlightAware Approximate
Sun 01:48:00 AM 7.9147 -76.2346 327° Northwest  Level FlightAware Approximate
Sun 01:49:00 AM 8.0220 -76.3056 327° Northwest  Level FlightAware Approximate
Sun 01:50:00 AM 8.1294 -76.3767 327° Northwest  Level FlightAware Approximate
Sun 01:51:00 AM 8.2368 -76.4478 327° Northwest  Level FlightAware Approximate
Sun 01:52:00 AM 8.3441 -76.5189 327° Northwest  Level FlightAware Approximate
Sun 01:53:00 AM 8.4514 -76.5901 327° Northwest  Level FlightAware Approximate
Sun 01:54:00 AM 8.5588 -76.6613 327° Northwest  Level FlightAware Approximate
Sun 01:55:00 AM 8.6661 -76.7325 327° Northwest  Level FlightAware Approximate
Sun 01:56:00 AM 8.7733 -76.8038 327° Northwest  Level FlightAware Approximate
Sun 01:57:00 AM 8.8806 -76.8751 327° Northwest  Level FlightAware Approximate
Sun 01:58:00 AM 8.9879 -76.9465 327° Northwest  Level FlightAware Approximate
Sun 01:59:00 AM 9.0951 -77.0179 327° Northwest  Level FlightAware Approximate
Sun 02:00:00 AM 9.2024 -77.0894 327° Northwest  Level FlightAware Approximate
Sun 02:01:00 AM 9.3096 -77.1609 327° Northwest  Level FlightAware Approximate
Sun 02:02:00 AM 9.4168 -77.2324 327° Northwest  Level FlightAware Approximate
Sun 02:03:00 AM 9.5240 -77.3040 327° Northwest  Level FlightAware Approximate
Sun 02:04:00 AM 9.6312 -77.3756 327° Northwest  Level FlightAware Approximate
Sun 02:05:00 AM 9.7384 -77.4473 327° Northwest  Level FlightAware Approximate
Sun 02:06:00 AM 9.8455 -77.5190 327° Northwest  Level FlightAware Approximate
Sun 02:07:00 AM 9.9528 -77.5904 327° Northwest  Level FlightAware Approximate
Sun 02:08:00 AM 10.0606 -77.6613 327° Northwest  Level FlightAware Approximate
Sun 02:09:00 AM 10.1683 -77.7322 327° Northwest  Level FlightAware Approximate
Sun 02:10:00 AM 10.2760 -77.8032 327° Northwest  Level FlightAware Approximate
Sun 02:11:00 AM 10.3837 -77.8742 327° Northwest  Level FlightAware Approximate
Sun 02:12:00 AM 10.4914 -77.9452 327° Northwest  Level FlightAware Approximate
Sun 02:13:00 AM 10.5990 -78.0163 327° Northwest  Level FlightAware Approximate
Sun 02:14:00 AM 10.7064 -78.0879 327° Northwest  Level FlightAware Approximate
Sun 02:15:00 AM 10.8134 -78.1600 327° Northwest  Level FlightAware Approximate
Sun 02:16:00 AM 10.9204 -78.2322 326° Northwest  Level FlightAware Approximate
Sun 02:17:00 AM 11.0274 -78.3044 326° Northwest  Level FlightAware Approximate
Sun 02:18:00 AM 11.1344 -78.3767 326° Northwest  Level FlightAware Approximate
Sun 02:19:00 AM 11.2414 -78.4490 326° Northwest  Level FlightAware Approximate
Sun 02:20:00 AM 11.3484 -78.5214 326° Northwest  Level FlightAware Approximate
Sun 02:21:00 AM 11.4553 -78.5938 326° Northwest  Level FlightAware Approximate
Sun 02:22:00 AM 11.5622 -78.6663 326° Northwest  Level FlightAware Approximate
Sun 02:23:00 AM 11.6691 -78.7388 326° Northwest  Level FlightAware Approximate
Sun 02:24:00 AM 11.7760 -78.8114 326° Northwest  Level FlightAware Approximate
Sun 02:25:00 AM 11.8829 -78.8841 326° Northwest  Level FlightAware Approximate
Sun 02:26:00 AM 11.9897 -78.9568 326° Northwest  Level FlightAware Approximate
Sun 02:27:00 AM 12.0965 -79.0295 326° Northwest  Level FlightAware Approximate
Sun 02:28:00 AM 12.2034 -79.1023 326° Northwest  Level FlightAware Approximate
Sun 02:29:00 AM 12.3102 -79.1752 326° Northwest  Level FlightAware Approximate
Sun 02:30:00 AM 12.4169 -79.2482 326° Northwest  Level FlightAware Approximate
Sun 02:31:00 AM 12.5237 -79.3212 326° Northwest  Level FlightAware Approximate
Sun 02:32:00 AM 12.6304 -79.3942 326° Northwest  Level FlightAware Approximate
Sun 02:33:00 AM 12.7371 -79.4673 326° Northwest  Level FlightAware Approximate
Sun 02:34:00 AM 12.8438 -79.5405 326° Northwest  Level FlightAware Approximate
Sun 02:35:00 AM 12.9506 -79.6136 326° Northwest  Level FlightAware Approximate
Sun 02:36:00 AM 13.0573 -79.6868 326° Northwest  Level FlightAware Approximate
Sun 02:37:00 AM 13.1640 -79.7601 326° Northwest  Level FlightAware Approximate
Sun 02:38:00 AM 13.2707 -79.8334 326° Northwest  Level FlightAware Approximate
Sun 02:39:00 AM 13.3774 -79.9068 326° Northwest  Level FlightAware Approximate
Sun 02:40:00 AM 13.4840 -79.9802 326° Northwest  Level FlightAware Approximate
Sun 02:41:00 AM 13.5906 -80.0537 326° Northwest  Level FlightAware Approximate
Sun 02:42:00 AM 13.6972 -80.1273 326° Northwest  Level FlightAware Approximate
Sun 02:43:00 AM 13.8038 -80.2010 326° Northwest  Level FlightAware Approximate
Sun 02:44:00 AM 13.9104 -80.2747 326° Northwest  Level FlightAware Approximate
Sun 02:45:00 AM 14.0169 -80.3484 326° Northwest  Level FlightAware Approximate
Sun 02:46:00 AM 14.1234 -80.4223 326° Northwest  Level FlightAware Approximate
Sun 02:47:00 AM 14.2299 -80.4962 326° Northwest  Level FlightAware Approximate
Sun 02:48:00 AM 14.3364 -80.5702 326° Northwest  Level FlightAware Approximate
Sun 02:49:00 AM 14.4428 -80.6443 326° Northwest  Level FlightAware Approximate
Sun 02:50:00 AM 14.5492 -80.7184 326° Northwest  Level FlightAware Approximate
Sun 02:51:00 AM 14.6557 -80.7926 326° Northwest  Level FlightAware Approximate
Sun 02:52:00 AM 14.7620 -80.8669 326° Northwest  Level FlightAware Approximate
Sun 02:53:00 AM 14.8684 -80.9412 326° Northwest  Level FlightAware Approximate
Sun 02:54:00 AM 14.9747 -81.0156 326° Northwest  Level FlightAware Approximate
Sun 02:55:00 AM 15.0812 -81.0898 326° Northwest  Level FlightAware Approximate
Sun 02:56:00 AM 15.1878 -81.1639 326° Northwest  Level FlightAware Approximate
Sun 02:57:00 AM 15.2943 -81.2381 326° Northwest  Level FlightAware Approximate
Sun 02:58:00 AM 15.4009 -81.3123 326° Northwest  Level FlightAware Approximate
Sun 02:59:00 AM 15.5074 -81.3867 326° Northwest  Level FlightAware Approximate
Sun 03:00:00 AM 15.6139 -81.4611 326° Northwest  Level FlightAware Approximate
Sun 03:01:00 AM 15.7203 -81.5356 326° Northwest  Level FlightAware Approximate
Sun 03:02:00 AM 15.8267 -81.6101 326° Northwest  Level FlightAware Approximate
Sun 03:03:00 AM 15.9331 -81.6848 326° Northwest  Level FlightAware Approximate
Sun 03:04:00 AM 16.0395 -81.7595 326° Northwest  Level FlightAware Approximate
Sun 03:05:00 AM 16.1459 -81.8343 326° Northwest  Level FlightAware Approximate
Sun 03:06:00 AM 16.2522 -81.9092 326° Northwest  Level FlightAware Approximate
Sun 03:07:00 AM 16.3585 -81.9842 326° Northwest  Level FlightAware Approximate
Sun 03:08:00 AM 16.4648 -82.0592 326° Northwest  Level FlightAware Approximate
Sun 03:09:00 AM 16.5710 -82.1344 326° Northwest  Level FlightAware Approximate
Sun 03:10:00 AM 16.6770 -82.2098 326° Northwest  Level FlightAware Approximate
Sun 03:11:00 AM 16.7829 -82.2857 326° Northwest  Level FlightAware Approximate
Sun 03:12:00 AM 16.8887 -82.3616 326° Northwest  Level FlightAware Approximate
Sun 03:13:00 AM 16.9945 -82.4376 326° Northwest  Level FlightAware Approximate
Sun 03:14:00 AM 17.1002 -82.5136 325° Northwest  Level FlightAware Approximate
Sun 03:15:00 AM 17.2060 -82.5898 325° Northwest  Level FlightAware Approximate
Sun 03:16:00 AM 17.3117 -82.6661 325° Northwest  Level FlightAware Approximate
Sun 03:17:00 AM 17.4174 -82.7424 325° Northwest  Level FlightAware Approximate
Sun 03:18:00 AM 17.5230 -82.8188 325° Northwest  Level FlightAware Approximate
Sun 03:19:00 AM 17.6286 -82.8953 325° Northwest  Level FlightAware Approximate
Sun 03:20:00 AM 17.7342 -82.9720 325° Northwest  Level FlightAware Approximate
Sun 03:21:00 AM 17.8398 -83.0487 325° Northwest  Level FlightAware Approximate
Sun 03:22:00 AM 17.9453 -83.1255 325° Northwest  Level FlightAware Approximate
Sun 03:23:00 AM 18.0508 -83.2023 325° Northwest  Level FlightAware Approximate
Sun 03:24:00 AM 18.1563 -83.2793 325° Northwest  Level FlightAware Approximate
Sun 03:25:00 AM 18.2617 -83.3564 325° Northwest  Level FlightAware Approximate
Sun 03:26:00 AM 18.3671 -83.4335 325° Northwest  Level FlightAware Approximate
Sun 03:27:00 AM 18.4725 -83.5108 325° Northwest  Level FlightAware Approximate
Sun 03:28:00 AM 18.5779 -83.5881 325° Northwest  Level FlightAware Approximate
Sun 03:29:00 AM 18.6824 -83.6650 325° Northwest  Level FlightAware Approximate
Sun 03:30:00 AM 18.7869 -83.7419 325° Northwest  Level FlightAware Approximate
Sun 03:31:00 AM 18.8913 -83.8190 325° Northwest  Level FlightAware Approximate
Sun 03:32:00 AM 18.9960 -83.8957 325° Northwest  Level FlightAware Approximate
Sun 03:33:00 AM 19.1009 -83.9722 325° Northwest  Level FlightAware Approximate
Sun 03:34:00 AM 19.2057 -84.0488 325° Northwest  Level FlightAware Approximate
Sun 03:35:00 AM 19.3105 -84.1255 325° Northwest  Level FlightAware Approximate
Sun 03:36:00 AM 19.4153 -84.2023 325° Northwest  Level FlightAware Approximate
Sun 03:37:00 AM 19.5200 -84.2793 325° Northwest  Level FlightAware Approximate
Sun 03:38:00 AM 19.6247 -84.3563 325° Northwest  Level FlightAware Approximate
Sun 03:39:00 AM 19.7294 -84.4334 325° Northwest  Level FlightAware Approximate
Sun 03:40:00 AM 19.8340 -84.5106 325° Northwest  Level FlightAware Approximate
Sun 03:41:00 AM 19.9386 -84.5879 325° Northwest  Level FlightAware Approximate
Sun 03:42:00 AM 20.0430 -84.6657 325° Northwest  Level FlightAware Approximate
Sun 03:43:00 AM 20.1470 -84.7440 325° Northwest  Level FlightAware Approximate
Sun 03:44:00 AM 20.2510 -84.8224 325° Northwest  Level FlightAware Approximate
Sun 03:45:00 AM 20.3549 -84.9010 325° Northwest  Level FlightAware Approximate
Sun 03:46:00 AM 20.4588 -84.9796 325° Northwest  Level FlightAware Approximate
Sun 03:47:00 AM 20.5627 -85.0584 325° Northwest  Level FlightAware Approximate
Sun 03:48:00 AM 20.6665 -85.1372 325° Northwest  Level FlightAware Approximate
Sun 03:49:00 AM 20.7704 -85.2160 325° Northwest  Level FlightAware Approximate
Sun 03:50:00 AM 20.8743 -85.2949 325° Northwest  Level FlightAware Approximate
Sun 03:51:00 AM 20.9782 -85.3739 325° Northwest  Level FlightAware Approximate
Sun 03:52:00 AM 21.0820 -85.4529 325° Northwest  Level FlightAware Approximate
Sun 03:53:00 AM 21.1858 -85.5322 325° Northwest  Level FlightAware Approximate
Sun 03:54:00 AM 21.2895 -85.6115 325° Northwest  Level FlightAware Approximate
Sun 03:55:00 AM 21.3933 -85.6908 325° Northwest  Level FlightAware Approximate
Sun 03:56:00 AM 21.4974 -85.7696 325° Northwest  Level FlightAware Approximate
Sun 03:57:00 AM 21.6016 -85.8485 325° Northwest  Level FlightAware Approximate
Sun 03:58:00 AM 21.7057 -85.9275 325° Northwest  Level FlightAware Approximate
Sun 03:59:00 AM 21.8097 -86.0066 325° Northwest  Level FlightAware Approximate
Sun 04:00:00 AM 21.9171 -86.0802 331° Northwest  Level FlightAware Approximate
Sun 04:01:00 AM 22.0332 -86.1362 338° Northwest  Level FlightAware Approximate
Sun 04:02:00 AM 22.1513 -86.1877 338° Northwest  Level FlightAware Approximate
Sun 04:03:00 AM 22.2694 -86.2392 338° Northwest  Level FlightAware Approximate
Sun 04:04:00 AM 22.3875 -86.2908 338° Northwest  Level FlightAware Approximate
Sun 04:05:00 AM 22.5056 -86.3426 338° Northwest  Level FlightAware Approximate
Sun 04:06:00 AM 22.6237 -86.3944 338° Northwest  Level FlightAware Approximate
Sun 04:07:00 AM 22.7417 -86.4463 338° Northwest  Level FlightAware Approximate
Sun 04:08:00 AM 22.8597 -86.4983 338° Northwest  Level FlightAware Approximate
Sun 04:09:00 AM 22.9778 -86.5504 338° Northwest  Level FlightAware Approximate
Sun 04:10:00 AM 23.0958 -86.6025 338° Northwest  Level FlightAware Approximate
Sun 04:11:00 AM 23.2137 -86.6548 338° Northwest  Level FlightAware Approximate
Sun 04:12:00 AM 23.3317 -86.7072 338° Northwest  Level FlightAware Approximate
Sun 04:13:00 AM 23.4496 -86.7596 338° Northwest  Level FlightAware Approximate
Sun 04:14:00 AM 23.5676 -86.8122 338° Northwest  Level FlightAware Approximate
Sun 04:15:00 AM 23.6855 -86.8648 338° Northwest  Level FlightAware Approximate
Sun 04:16:00 AM 23.7662 -86.9640 312° West  Level Estimated
Sun 04:17:00 AM 23.8468 -87.0634 312° West  Level Estimated
Sun 04:18:00 AM 23.9274 -87.1628 312° West  Level Estimated
Sun 04:19:00 AM 24.0079 -87.2624 312° West  Level Estimated
Sun 04:20:00 AM 24.0884 -87.3621 311° West  Level Estimated
Sun 04:21:00 AM 24.1687 -87.4620 311° West  Level Estimated
Sun 04:22:00 AM 24.2491 -87.5620 311° West  Level Estimated
Sun 04:23:00 AM 24.3293 -87.6620 311° West  Level Estimated
Sun 04:24:00 AM 24.4095 -87.7623 311° West  Level Estimated
Sun 04:25:00 AM 24.4896 -87.8626 311° West  Level Estimated
Sun 04:26:00 AM 24.5697 -87.9631 311° West  Level Estimated
Sun 04:27:00 AM 24.6497 -88.0637 311° West  Level Estimated
Sun 04:28:00 AM 24.7296 -88.1644 311° West  Level Estimated
Sun 04:29:00 AM 24.8094 -88.2653 311° West  Level Estimated
Sun 04:30:00 AM 24.8892 -88.3663 311° West  Level Estimated
Sun 04:31:00 AM 24.9689 -88.4674 311° West  Level Estimated
Sun 04:32:00 AM 25.0486 -88.5686 311° West  Level Estimated
Sun 04:33:00 AM 25.1282 -88.6700 311° West  Level Estimated
Sun 04:34:00 AM 25.2077 -88.7715 311° West  Level Estimated
Sun 04:35:00 AM 25.2871 -88.8732 311° West  Level Estimated
Sun 04:36:00 AM 25.3665 -88.9750 311° West  Level Estimated
Sun 04:37:00 AM 25.4458 -89.0769 311° West  Level Estimated
Sun 04:38:00 AM 25.5250 -89.1789 311° West  Level Estimated
Sun 04:39:00 AM 25.6042 -89.2811 311° West  Level Estimated
Sun 04:40:00 AM 25.6833 -89.3834 311° West  Level Estimated
Sun 04:41:00 AM 25.7623 -89.4859 311° West  Level Estimated
Sun 04:42:00 AM 25.8412 -89.5885 311° West  Level Estimated
Sun 04:43:00 AM 25.9201 -89.6912 310° West  Level Estimated
Sun 04:44:00 AM 25.9989 -89.7941 310° West  Level Estimated
Sun 04:45:00 AM 26.0776 -89.8971 310° West  Level Estimated
Sun 04:46:00 AM 26.1563 -90.0002 310° West  Level Estimated
Sun 04:47:00 AM 26.2348 -90.1035 310° West  Level Estimated
Sun 04:48:00 AM 26.3134 -90.2069 310° West  Level Estimated
Sun 04:49:00 AM 26.3928 -90.3118 310° West  Level Estimated
Sun 04:50:00 AM 26.4722 -90.4169 310° West  Level Estimated
Sun 04:51:00 AM 26.5515 -90.5220 310° West  Level Estimated
Sun 04:52:00 AM 26.6307 -90.6274 310° West  Level Estimated
Sun 04:53:00 AM 26.7098 -90.7329 310° West  Level Estimated
Sun 04:54:00 AM 26.7889 -90.8385 310° West  Level Estimated
Sun 04:55:00 AM 26.8679 -90.9443 310° West  Level Estimated
Sun 04:56:00 AM 26.9468 -91.0502 310° West  Level Estimated
Sun 04:57:00 AM 27.0256 -91.1563 310° West  Level Estimated
Sun 04:58:00 AM 27.1043 -91.2625 310° West  Level Estimated
Sun 04:59:00 AM 27.1830 -91.3689 310° West  Level Estimated
Sun 05:00:00 AM 27.2616 -91.4754 310° West  Level Estimated
Sun 05:01:00 AM 27.3401 -91.5821 310° West  Level Estimated
Sun 05:01:25 AM 26.5861 -91.5183 309° West 472 543 40,000  Level Houston Center
Sun 05:02:00 AM 27.4185 -91.6889 310° West  Level Estimated
Sun 05:02:25 AM 26.6875 -91.5989 325° Northwest 453 521 40,000  Level Houston Center
Sun 05:03:00 AM 27.4968 -91.7959 310° West  Level Estimated
Sun 05:03:25 AM 26.7775 -91.6828 320° Northwest 437 503 40,000  Level Houston Center
Sun 05:04:00 AM 27.5754 -91.9034 310° West  Level Estimated
Sun 05:04:25 AM 26.8814 -91.7872 318° Northwest 450 518 40,000  Level Houston Center
Sun 05:05:00 AM 27.6539 -92.0111 309° West  Level Estimated
Sun 05:05:26 AM 26.9767 -91.8814 319° Northwest 455 524 40,000  Level Houston Center
Sun 05:06:00 AM 27.7323 -92.1189 309° West  Level Estimated
Sun 05:06:26 AM 27.0711 -91.9764 318° Northwest 456 525 40,000  Level Houston Center
Sun 05:07:26 AM 27.1656 -92.0722 318° Northwest 457 526 40,000  Level Houston Center
Sun 05:08:26 AM 27.2617 -92.1642 320° Northwest 456 525 40,000  Level Houston Center
Sun 05:09:27 AM 27.3556 -92.2611 317° Northwest 455 524 40,000  Level Houston Center
Sun 05:10:27 AM 27.4486 -92.3547 318° Northwest 451 519 40,000  Level Houston Center
Sun 05:11:27 AM 27.5411 -92.4500 318° Northwest 450 518 40,000  Level Houston Center
Sun 05:12:27 AM 27.6331 -92.5431 318° Northwest 446 513 40,000 -198 Level Houston Center
Sun 05:13:28 AM 27.7267 -92.6364 319° Northwest 448 516 39,600 -942 Descending Houston Center
Sun 05:14:28 AM 27.8181 -92.7308 318° Northwest 447 514 38,100 -1,450 Descending Houston Center
Sun 05:15:28 AM 27.9061 -92.8203 318° Northwest 432 497 36,700 -1,400 Descending Houston Center
Sun 05:16:28 AM 27.9956 -92.9100 318° Northwest 429 494 35,300 -1,388 Descending Houston Center
Sun 05:17:29 AM 28.0825 -93.0017 317° Northwest 428 493 33,900 -1,388 Descending Houston Center
Sun 05:18:29 AM 28.1753 -93.0989 317° Northwest 451 519 32,500 -1,500 Descending Houston Center
Sun 05:19:29 AM 28.2717 -93.1964 318° Northwest 463 533 30,900 -1,650 Descending Houston Center
Sun 05:20:29 AM 28.3769 -93.3036 318° Northwest 479 551 29,200 -1,700 Descending Houston Center
Sun 05:21:29 AM 28.4739 -93.4058 317° Northwest 477 549 27,500 -1,736 Descending Houston Center
Sun 05:22:30 AM 28.5681 -93.5042 317° Northwest 463 533 25,700 -1,736 Descending Houston Center
Sun 05:23:30 AM 28.6603 -93.5975 318° Northwest 449 517 24,000 -1,600 Descending Houston Center
Sun 05:24:30 AM 28.7497 -93.6917 317° Northwest 439 505 22,500 -1,500 Descending Houston Center
Sun 05:25:30 AM 28.8367 -93.7828 317° Northwest 429 494 21,000 -1,488 Descending Houston Center
Sun 05:26:31 AM 28.9206 -93.8708 317° Northwest 413 475 19,500 -1,528 Descending Houston Center
Sun 05:27:16 AM 28.9889 -93.9422 318° Northwest 410 472 18,300 -1,500 Descending Houston Center
Sun 05:27:31 AM 29.0039 -93.9594 315° West 407 468 18,000 -1,440 Descending Houston Center
Sun 05:28:31 AM 29.0869 -94.0461 318° Northwest 406 467 16,500 -1,300 Descending Houston Center
Sun 05:29:31 AM 29.1686 -94.1311 318° Northwest 398 458 15,400 -1,091 Descending Houston Center
Sun 05:30:32 AM 29.2486 -94.2169 317° Northwest 396 456 14,300 -1,041 Descending Houston Center
Sun 05:31:32 AM 29.3272 -94.2994 318° Northwest 386 444 13,300 -900 Descending Houston Center
Sun 05:32:32 AM 29.4014 -94.3786 317° Northwest 368 423 12,500 -1,000 Descending Houston Center
Sun 05:33:32 AM 29.4675 -94.4492 317° Northwest 330 380 11,300 -1,190 Descending Houston Center
Sun 05:34:33 AM 29.5297 -94.5156 317° Northwest 309 356 10,100 -1,140 Descending Houston Center
Sun 05:35:33 AM 29.5897 -94.5800 317° Northwest 298 343 9,000 -1,050 Descending Houston Center
Sun 05:36:33 AM 29.6486 -94.6419 318° Northwest 291 335 8,000 -1,000 Descending Houston Center
Sun 05:37:33 AM 29.7081 -94.7050 317° Northwest 292 336 7,000 -992 Descending Houston Center
Sun 05:38:34 AM 29.7658 -94.7692 316° Northwest 290 334 6,000 -1,091 Descending Houston Center
Sun 05:39:34 AM 29.8244 -94.8314 317° Northwest 289 333 4,800 -900 Descending Houston Center
Sun 05:40:34 AM 29.8953 -94.9083 317° Northwest 292 336 4,200 -400 Descending Houston Center
Sun 05:41:34 AM 29.9514 -94.9694 317° Northwest 283 326 4,000 -160 Descending Houston Center
Sun 05:41:49 AM 29.9639 -94.9839 315° West 257 296 4,000  Level Houston Center
Sun 05:42:35 AM 29.9789 -95.0375 288° West 253 291 4,000 -453 Level Houston Center
Sun 05:43:35 AM 29.9792 -95.1106 270° West 237 273 3,200 -800 Descending Houston Center

Login

Don't have an account? Register now (free) for customized features, flight alerts, and more!